Flight Track Log - Related Links

Times and Time Zones

All times are in EDT time to prevent confusion due to time zone crossing. See the PDT4314 flight status page for this flight to view local times or setup timezone preferences in your user account.

Time Position Orientation Groundspeed Altitude Reporting Facility
EDT Latitude Longitude Course Direction KTS MPH feet Rate Location/Type
Thu 04:29:00 PM 39.8833 -75.2333 293° West 113 130 500  Level Philadelphia TRACON
Thu 04:29:48 PM 39.9000 -75.2667 303° West 117 135 1,900 1,444 Climbing Philadelphia TRACON
Thu 04:30:48 PM 39.9167 -75.3167 294° West 123 142 3,100 1,211 Climbing Philadelphia TRACON
Thu 04:31:00 PM 40.0700 -75.3014 323° Northwest  Level Estimated
Thu 04:31:42 PM 39.9333 -75.3500 303° West 123 142 4,200  Level Philadelphia TRACON
Thu 04:32:00 PM 40.1359 -75.3216 311° West  Level Estimated
Thu 04:32:42 PM 39.9167 -75.3833 237° Southwest 135 155 5,500  Level Philadelphia TRACON
Thu 04:33:00 PM 40.2018 -75.3419 311° West  Level Estimated
Thu 04:33:42 PM 39.9333 -75.4167 303° West 146 168 6,700  Level Philadelphia TRACON
Thu 04:34:00 PM 40.2281 -75.4236 293° West  Level FlightAware Approximate
Thu 04:34:42 PM 39.9667 -75.4000 21° North 150 173 8,000  Level Philadelphia TRACON
Thu 04:35:42 PM 40.0000 -75.4167 339° North 142 163 9,000 382 Climbing Philadelphia TRACON
Thu 04:37:19 PM 40.0764 -75.4667 333° Northwest 211 243 9,000  Level New York Center
Thu 04:38:19 PM 40.1333 -75.5031 334° Northwest 211 243 9,000  Level New York Center
Thu 04:39:19 PM 40.1819 -75.5336 334° Northwest 211 243 9,000 350 Level New York Center
Thu 04:40:19 PM 40.2364 -75.5781 328° Northwest 211 243 9,700 1,000 Climbing New York Center
Thu 04:41:19 PM 40.2686 -75.6103 323° Northwest 179 206 11,000 1,050 Climbing New York Center
Thu 04:42:19 PM 40.3131 -75.6406 333° Northwest 166 191 11,800 800 Climbing New York Center
Thu 04:43:19 PM 40.3594 -75.6819 326° Northwest 166 191 12,600 900 Climbing New York Center
Thu 04:44:19 PM 40.4014 -75.7203 325° Northwest 178 205 13,600 700 Climbing New York Center
Thu 04:45:19 PM 40.4481 -75.7564 330° Northwest 183 211 14,000 200 Climbing New York Center
Thu 04:46:19 PM 40.4919 -75.7978 324° Northwest 210 242 14,000  Level New York Center
Thu 04:47:19 PM 40.5461 -75.8483 325° Northwest 225 259 14,000  Level New York Center
Thu 04:48:19 PM 40.6131 -75.8914 334° Northwest 230 265 14,000  Level New York Center
Thu 04:49:19 PM 40.6672 -75.9392 326° Northwest 235 270 14,000  Level New York Center
Thu 04:50:19 PM 40.7233 -75.9928 324° Northwest 243 280 14,000  Level New York Center
Thu 04:51:19 PM 40.7794 -76.0411 327° Northwest 243 280 14,000  Level New York Center
Thu 04:52:19 PM 40.8297 -76.0833 328° Northwest 243 280 14,000  Level New York Center
Thu 04:53:19 PM 40.8858 -76.1344 325° Northwest 243 280 14,000  Level New York Center
Thu 04:54:19 PM 40.9481 -76.1831 329° Northwest 243 280 14,000  Level New York Center
Thu 04:55:19 PM 40.9964 -76.2200 330° Northwest 233 268 14,000  Level New York Center
Thu 04:56:19 PM 41.0672 -76.2203 360° North 227 261 14,000  Level New York Center
Thu 04:57:19 PM 41.1319 -76.2144 North 233 268 14,000  Level New York Center
Thu 04:58:19 PM 41.1989 -76.2142 360° North 233 268 14,000  Level New York Center
Thu 04:59:19 PM 41.2594 -76.2053 North 238 274 14,000  Level New York Center
Thu 05:00:19 PM 41.3242 -76.2050 360° North 238 274 14,000  Level New York Center
Thu 05:01:19 PM 41.3972 -76.2000 North 238 274 14,000  Level New York Center
Thu 05:02:19 PM 41.4622 -76.1914 North 238 274 14,000  Level New York Center
Thu 05:03:19 PM 41.5292 -76.1856 North 238 274 14,000 -300 Level New York Center
Thu 05:04:19 PM 41.5878 -76.1819 North 238 274 13,400 -750 Descending New York Center
Thu 05:05:19 PM 41.6569 -76.1683 North 244 281 12,500 -1,050 Descending New York Center
Thu 05:06:19 PM 41.7317 -76.1297 21° North 244 281 11,300 -1,100 Descending New York Center
Thu 05:07:19 PM 41.7956 -76.0958 22° Northeast 244 281 10,300 -1,000 Descending New York Center
Thu 05:08:19 PM 41.8575 -76.0619 22° Northeast 244 281 9,300 -1,050 Descending New York Center
Thu 05:09:19 PM 41.9089 -76.0325 23° Northeast 226 260 8,200 -1,500 Descending New York Center
Thu 05:10:19 PM 41.9686 -75.9983 23° Northeast 226 260 6,300 -1,650 Descending New York Center
Thu 05:11:19 PM 42.0369 -75.9589 23° Northeast 231 266 4,900 -1,000 Descending New York Center
Thu 05:12:19 PM 42.0881 -75.9350 19° North 226 260 4,300 -550 Descending New York Center
Thu 05:13:19 PM 42.1431 -75.9142 16° North 214 246 3,800 -500 Descending New York Center
Thu 05:14:19 PM 42.1914 -75.9011 11° North 193 222 3,300 -800 Descending New York Center
Thu 05:15:19 PM 42.2064 -75.9417 297° West 141 162 2,200 -1,100 Descending New York Center

Login

Don't have an account? Register now (free) for customized features, flight alerts, and more!